Accueil
METAR-TAF:

METAR-TAF

Aéroports :

Aéroport Pattimura

Ambon, Indonésie

latitude: 03-42S, longitude: 128-05E, altitude: 12 m

Observation

Le bulletin a été fait il y a 3 heures et 9 minutes, à 18:30 UTC
Température 25°C
Humidité 94%
Pression 1010 hPa
Visibilité: 9000 m
Nuages épars à une hauteur de 1700 ft

METAR: WAPP 181830Z 0100KT 9000 SCT017 25/24 Q1010 NOSIG

Heure: 06:39 (21:39 UTC)

Prévision

Le bulletin a été fait il y a 4 heures et 39 minutes, à 17:00 UTC
Prévision valable du 18 à 18 UTC au 19 à 18 UTC
Vent 6 kt de nord/nord-ouest
Visibilité 10 km ou plus
Nuages épars à une hauteur de 1700 ft
Evoluant progressivement
du 18 à 21 UTC au 18 à 23 UTC
Vent 7 kt de sud

TAF: WAPP 181700Z 1818/1918 34006KT 9999 SCT017 BECMG 1821/1823 19007KT

Observations et prévisions météorologiques de plus de 4000 aéroports (messages METAR et TAF).

Les stations disponibles sont représentées par des disques jaunes et rouges sur la carte.

Passer la souris dessus pour voir le nom de la station.

Cliquer dessus pour voir les observations et prévisions météorologiques.

Pour changer de carte: cliquez sur les boutons verts avec une croix noire pour zoomer, sur le bouton vert avec un tiret pour effectuer un zoom arrière, ou sur les flèches vertes pour les cartes adjacentes.


METAR-TAF: